• Join FlightAware (Why Join?)
  • Login
  • US Flag 
Rudolph Flight #1: Arrived! 
01:55AM EST


 

Airport Tracker/Info


-or-


 

Live Flight TrackerFlight Track Log ✈ EJA396 ✈ 29-Apr-2013 ✈ KTEB - KRIC

Flight Track Log - Related Links

Times and Time Zones

All times are in EDT time to prevent confusion due to time zone crossing. See the EJA396 flight status page for this flight to view local times or setup timezone preferences in your user account.

Time Position Orientation Groundspeed Altitude Reporting Facility
EDT Latitude Longitude Course Direction KTS MPH feet Rate Location/Type
12:54PM 40.8167 -74.1333 194° South 192 221 1,600  Level New York TRACON
12:55PM 40.8167 -74.2167 270° West 219 252 3,300 1,680 Climbing New York TRACON
12:56PM 40.7667 -74.2667 217° Southwest 218 251 5,000 840 Climbing New York TRACON
12:57PM 40.7167 -74.3000 207° Southwest 248 285 5,000 480 Level New York TRACON
12:58PM 40.6500 -74.3000 180° South 225 259 6,000 360 Climbing New York TRACON
12:59PM 40.2941 -74.1520 194° South  Level FlightAware Approximate
01:00PM 40.5203 -74.2628 168° South 275 316 6,100  Level New York Center
01:01PM 40.4483 -74.2292 160° South 261 300 6,000  Descending New York Center
01:02PM 40.3911 -74.1989 158° South 261 300 6,100 1,920 Climbing New York Center
01:03PM 40.3056 -74.1975 179° South 267 307 9,900 3,420 Climbing New York Center
01:05PM 40.0747 -74.2386 188° South 351 404 17,900 3,300 Climbing Washington Center
01:06PM 39.9833 -74.2783 198° South 362 417 21,100 2,040 Climbing Washington Center
01:07PM 39.8967 -74.3583 215° Southwest 359 413 22,000 420 Climbing Washington Center
01:08PM 39.8122 -74.4408 217° Southwest 384 442 22,000 240 Level Washington Center
01:09PM 39.7442 -74.5283 225° Southwest 390 449 22,500 720 Climbing Washington Center
01:10PM 39.6681 -74.6292 226° Southwest 390 449 23,500 720 Climbing Washington Center
01:11PM 39.5958 -74.7269 226° Southwest 383 441 24,000 240 Climbing Washington Center
01:12PM 39.5131 -74.8142 219° Southwest 378 435 24,000  Level Washington Center
01:13PM 39.4156 -74.8744 206° Southwest 383 441 24,000  Level Washington Center
01:14PM 39.3178 -74.9317 204° Southwest 388 447 24,000  Level Washington Center
01:15PM 39.2203 -74.9914 205° Southwest 388 447 24,000  Level Washington Center
01:16PM 39.1247 -75.0511 206° Southwest 388 447 24,000  Level Washington Center
01:17PM 39.0311 -75.1053 204° Southwest 383 441 24,000  Level Washington Center
01:18PM 38.9333 -75.1647 205° Southwest 383 441 24,000  Level Washington Center
01:19PM 38.8356 -75.2211 204° Southwest 383 441 24,000  Level Washington Center
01:20PM 38.7378 -75.2803 205° Southwest 383 441 24,000  Level Washington Center
01:21PM 38.6442 -75.3444 208° Southwest 383 441 24,000  Level Washington Center
01:22PM 38.5692 -75.4378 224° Southwest 383 441 24,000 -300 Level Washington Center
01:23PM 38.5089 -75.5492 235° Southwest 376 433 23,500 -1,200 Descending Washington Center
01:24PM 38.4483 -75.6553 234° Southwest 376 433 21,600 -2,340 Descending Washington Center
01:25PM 38.3919 -75.7611 236° Southwest 371 427 18,800 -2,820 Descending Washington Center
01:26PM 38.3272 -75.8722 233° Southwest 371 427 16,100 -2,520 Descending Washington Center
01:27PM 38.2706 -75.9753 235° Southwest 365 420 13,900 -2,100 Descending Washington Center
01:28PM 38.2161 -76.0700 234° Southwest 360 414 11,900 -1,920 Descending Washington Center
01:29PM 38.1614 -76.1647 234° Southwest 350 403 10,200 -960 Descending Washington Center
01:30PM 38.1086 -76.2647 236° Southwest 340 391 10,000 -120 Descending Washington Center
01:31PM 38.0539 -76.3592 234° Southwest 340 391 10,000  Level Washington Center
01:32PM 37.9992 -76.4561 234° Southwest 340 391 10,000  Level Washington Center
01:33PM 37.9442 -76.5503 233° Southwest 340 391 10,000  Level Washington Center
01:34PM 37.8911 -76.6469 235° Southwest 340 391 10,000 -480 Level Washington Center
01:35PM 37.8467 -76.7253 234° Southwest 315 362 9,100 -1,500 Descending Washington Center
01:36PM 37.8106 -76.8061 241° Southwest 290 334 7,100 -2,220 Descending Washington Center
01:37PM 37.7969 -76.8978 259° West 267 307 4,600 -2,340 Descending Washington Center
01:38PM 37.7856 -76.9767 260° West 262 302 2,400 -1,140 Descending Washington Center
01:39PM 37.7764 -77.0631 262° West 254 292 2,400  Level Washington Center
01:40PM 37.7669 -77.1522 262° West 254 292 2,400  Level Washington Center
01:41PM 37.7697 -77.2442 272° West 254 292 2,400  Level Washington Center
01:43PM 37.7500 -77.4000 261° West 253 291 2,400  Level Potomac TRACON
01:44PM 37.7000 -77.4667 227° Southwest 247 284 2,400  Level Potomac TRACON
01:45PM 37.6500 -77.4333 152° Southeast 208 239 2,400 -120 Level Potomac TRACON
01:46PM 37.6000 -77.3833 142° Southeast 197 227 2,200 -600 Descending Potomac TRACON
01:47PM 37.5667 -77.3667 158° South 154 177 1,300 -780 Descending Potomac TRACON
01:48PM 37.5333 -77.3333 142° Southeast 118 136 700 -600 Descending Potomac TRACON
01:50PM 37.5000 -77.3167 148° Southeast  Level FlightAware Approximate
01:57PM 37.5052 -77.3197 148° Southeast  Level Estimated
01:58PM 37.5000 -77.3167 148° Southeast  Level FlightAware Approximate